EW9636 Weather Reports


Display with metric or nautical units.
time (UTC)temp
F
wind
direction
speed
MPH
gust
MPH
rain 1hr
in
rain 24hr
in
rain mn
in
humidity
%
barometer
mb
20190319211019 47 157 1.0 3.0 0.00 0.00 0.00 89 1028.5
20190319210017 48 180 3.0 4.0 0.00 0.00 0.00 89 1028.5
20190319205018 48 225 2.0 2.0 0.00 0.00 0.00 88 1028.5
20190319204018 48 247 3.0 4.0 0.00 0.00 0.00 88 1028.6
20190319203018 48 270 3.0 4.0 0.00 0.00 0.00 88 1028.4
20190319202018 48 247 2.0 4.0 0.00 0.00 0.00 88 1028.6
20190319201018 48 247 5.0 6.0 0.00 0.00 0.00 88 1028.3
20190319200018 49 247 3.0 7.0 0.00 0.00 0.00 88 1028.2
20190319195017 49 270 3.0 5.0 0.00 0.00 0.00 88 1028.3
20190319194018 49 247 3.0 5.0 0.00 0.00 0.00 87 1028.2
20190319193017 49 270 3.0 4.0 0.00 0.00 0.00 87 1028.2
20190319192017 49 247 3.0 4.0 0.00 0.00 0.00 86 1028.1
20190319191017 50 247 5.0 8.0 0.00 0.00 0.00 86 1028.1
20190319190019 50 247 2.0 4.0 0.00 0.00 0.00 85 1027.9
20190319185018 50 247 4.0 5.0 0.00 0.00 0.00 85 1027.6
20190319184018 50 247 2.0 4.0 0.00 0.00 0.00 84 1027.8
20190319183017 51 247 1.0 2.0 0.00 0.00 0.00 83 1027.7
20190319182017 51 270 3.0 3.0 0.00 0.00 0.00 81 1027.8
20190319181017 51 270 1.0 4.0 0.00 0.00 0.00 81 1027.8
20190319180017 51 292 2.0 2.0 0.00 0.00 0.00 81 1027.6
20190319175017 51 247 2.0 3.0 0.00 0.00 0.00 81 1027.2
20190319174017 51 270 3.0 5.0 0.00 0.00 0.00 80 1026.8
20190319173018 52 247 4.0 6.0 0.00 0.00 0.00 79 1026.8
20190319172018 52 247 4.0 6.0 0.00 0.00 0.00 78 1026.7
20190319171019 53 247 3.0 5.0 0.00 0.00 0.00 75 1026.4
20190319170019 53 225 3.0 6.0 0.00 0.00 0.00 74 1026.2
20190319165018 53 270 3.0 6.0 0.00 0.00 0.00 74 1026.3
20190319164019 53 270 3.0 5.0 0.00 0.00 0.00 73 1026.2
20190319163020 54 270 4.0 5.0 0.00 0.00 0.00 70 1026.2
20190319162019 55 270 3.0 5.0 0.00 0.00 0.00 69 1026.0
20190319161018 55 270 4.0 6.0 0.00 0.00 0.00 69 1025.7
20190319160017 55 270 3.0 4.0 0.00 0.00 0.00 70 1025.8
20190319155018 55 247 3.0 6.0 0.00 0.00 0.00 71 1025.8
20190319154017 55 270 3.0 4.0 0.00 0.00 0.00 70 1025.8
20190319153018 55 270 5.0 7.0 0.00 0.00 0.00 71 1025.7
20190319152019 54 225 5.0 7.0 0.00 0.00 0.00 74 1025.9
20190319151019 55 157 4.0 6.0 0.00 0.00 0.00 77 1025.9
20190319150019 54 247 1.0 2.0 0.00 0.00 0.00 75 1026.0
20190319145019 54 247 4.0 6.0 0.00 0.00 0.00 75 1026.1
20190319144019 54 270 3.0 4.0 0.00 0.00 0.00 76 1026.3
20190319143018 53 270 3.0 5.0 0.00 0.00 0.00 76 1026.2
20190319142017 53 270 4.0 5.0 0.00 0.00 0.00 79 1026.2
20190319141017 53 270 5.0 7.0 0.00 0.00 0.00 79 1026.3
20190319140019 53 225 3.0 6.0 0.00 0.00 0.00 80 1026.3
20190319135019 53 247 3.0 5.0 0.00 0.00 0.00 81 1026.4
20190319134019 52 270 3.0 6.0 0.00 0.00 0.00 80 1026.6
20190319133019 52 225 4.0 6.0 0.00 0.00 0.00 80 1026.6
20190319132019 53 247 5.0 7.0 0.00 0.00 0.00 80 1026.6
20190319131019 53 247 3.0 4.0 0.00 0.00 0.00 80 1026.6
20190319130019 53 247 3.0 7.0 0.00 0.00 0.00 81 1026.6
20190319125018 53 247 2.0 5.0 0.00 0.00 0.00 81 1026.6
20190319124019 52 270 3.0 5.0 0.00 0.00 0.00 79 1026.7
20190319123019 52 292 2.0 4.0 0.00 0.00 0.00 79 1026.7
20190319122017 53 292 4.0 7.0 0.00 0.00 0.00 79 1026.8
20190319121017 52 225 2.0 4.0 0.00 0.00 0.00 81 1026.7
20190319120019 53 270 5.0 7.0 0.00 0.00 0.00 80 1026.6
20190319115019 53 247 3.0 4.0 0.00 0.00 0.00 80 1026.4
20190319114019 54 247 4.0 6.0 0.00 0.00 0.00 79 1026.3
20190319113019 54 247 4.0 6.0 0.00 0.00 0.00 78 1026.4
20190319112019 54 247 5.0 7.0 0.00 0.00 0.00 76 1026.2
20190319111019 54 247 3.0 6.0 0.00 0.00 0.00 79 1026.2
20190319110021 53 225 4.0 7.0 0.00 0.00 0.00 81 1026.3
20190319105019 53 180 3.0 5.0 0.00 0.00 0.00 83 1026.3
20190319104019 53 202 2.0 4.0 0.00 0.00 0.00 83 1026.3
20190319103019 53 225 3.0 4.0 0.00 0.00 0.00 83 1026.3
20190319102019 52 225 3.0 6.0 0.00 0.00 0.00 85 1026.1
20190319101019 51 225 2.0 4.0 0.00 0.00 0.00 85 1026.2
20190319100019 50 247 3.0 7.0 0.00 0.00 0.00 88 1026.0
20190319095019 49 247 2.0 4.0 0.00 0.00 0.00 89 1026.1
20190319094019 49 225 2.0 3.0 0.00 0.00 0.00 91 1026.0
20190319093018 49 225 1.0 3.0 0.00 0.00 0.00 92 1026.0
20190319092019 48 270 2.0 2.0 0.00 0.00 0.00 95 1025.9
20190319091019 47 0.0 1.0 0.00 0.00 0.00 95 1025.9
20190319090019 46 180 1.0 2.0 0.00 0.00 0.00 95 1025.9
20190319085019 46 0.0 1.0 0.00 0.00 0.00 95 1025.9
20190319084019 45 0.0 1.0 0.00 0.00 0.00 96 1025.9
20190319083038 45 0.0 0.0 0.00 0.00 0.00 96 1025.9
20190319023019 42 247 3.0 4.0 0.00 0.00 0.00 95 1023.9
20190319022018 42 247 1.0 2.0 0.00 0.00 0.00 94 1023.9
20190319021019 42 247 1.0 2.0 0.00 0.00 0.00 95 1023.9
20190319020019 42 247 2.0 3.0 0.00 0.00 0.00 95 1023.9
20190319015018 42 247 1.0 1.0 0.00 0.00 0.00 95 1023.9
20190319014019 41 0.0 1.0 0.00 0.00 0.00 94 1023.8
20190319013018 41 0.0 0.0 0.00 0.00 0.00 93 1023.8
20190319012018 42 0.0 1.0 0.00 0.00 0.00 94 1023.8
20190319011018 42 247 1.0 1.0 0.00 0.00 0.00 94 1023.8
20190319010019 42 247 1.0 2.0 0.00 0.00 0.00 93 1023.8
20190319005018 42 270 1.0 3.0 0.00 0.00 0.00 93 1023.7
20190319004018 43 270 1.0 3.0 0.00 0.00 0.00 93 1023.7
20190319003018 43 0.0 1.0 0.00 0.00 0.00 93 1023.7
20190319002018 43 0.0 1.0 0.00 0.00 0.00 93 1023.8
20190319001018 43 0.0 1.0 0.00 0.00 0.00 93 1023.8
20190319000018 43 0.0 1.0 0.00 0.00 0.00 93 1023.8
20190318235018 43 247 1.0 2.0 0.00 0.00 0.00 93 1023.7
20190318234018 43 0.0 1.0 0.00 0.00 0.00 93 1023.7
20190318233019 43 0.0 1.0 0.00 0.00 0.00 93 1023.6
20190318232018 43 0.0 0.0 0.00 0.00 0.00 93 1023.6
20190318231018 43 0.0 1.0 0.00 0.00 0.00 93 1023.6
20190318230018 43 0.0 2.0 0.00 0.00 0.00 93 1023.3
20190318225018 42 0.0 1.0 0.00 0.00 0.00 93 1023.5
20190318224018 42 0.0 1.0 0.00 0.00 0.00 93 1023.5
20190318223018 42 0.0 1.0 0.00 0.00 0.00 93 1023.4
20190318222018 42 0.0 1.0 0.00 0.00 0.00 92 1023.4
20190318221018 42 0.0 1.0 0.00 0.00 0.00 93 1023.3
20190318220018 42 270 1.0 1.0 0.00 0.00 0.00 93 1023.2
20190318215018 42 225 1.0 2.0 0.00 0.00 0.00 92 1023.3
20190318214018 42 0.0 1.0 0.00 0.00 0.00 91 1023.2
20190318213017 43 0.0 0.0 0.00 0.00 0.00 90 1023.2
20190318212018 44 0.0 1.0 0.00 0.00 0.00 90 1023.2